sensor_id;sensor_type;location;lat;lon;timestamp;P1;durP1;ratioP1;P2;durP2;ratioP2
10596;SDS011;5346;48.766;8.674;2022-10-16T00:01:35;1.75;;;1.50;;
10596;SDS011;5346;48.766;8.674;2022-10-16T00:04:06;2.38;;;1.55;;
10596;SDS011;5346;48.766;8.674;2022-10-16T00:06:34;1.75;;;1.60;;
10596;SDS011;5346;48.766;8.674;2022-10-16T00:09:08;2.25;;;1.67;;
10596;SDS011;5346;48.766;8.674;2022-10-16T00:11:36;2.13;;;1.85;;
10596;SDS011;5346;48.766;8.674;2022-10-16T00:14:07;3.22;;;1.67;;
10596;SDS011;5346;48.766;8.674;2022-10-16T00:16:44;2.05;;;1.83;;
10596;SDS011;5346;48.766;8.674;2022-10-16T00:19:11;2.10;;;1.50;;
10596;SDS011;5346;48.766;8.674;2022-10-16T00:21:39;3.35;;;1.50;;
10596;SDS011;5346;48.766;8.674;2022-10-16T00:24:13;3.50;;;1.40;;
10596;SDS011;5346;48.766;8.674;2022-10-16T00:26:40;3.90;;;1.50;;
10596;SDS011;5346;48.766;8.674;2022-10-16T00:29:10;4.38;;;1.77;;
10596;SDS011;5346;48.766;8.674;2022-10-16T00:31:44;2.75;;;1.65;;
10596;SDS011;5346;48.766;8.674;2022-10-16T00:34:12;1.60;;;1.30;;
10596;SDS011;5346;48.766;8.674;2022-10-16T00:36:46;2.47;;;1.80;;
10596;SDS011;5346;48.766;8.674;2022-10-16T00:39:20;3.05;;;1.83;;
10596;SDS011;5346;48.766;8.674;2022-10-16T00:41:48;2.58;;;1.30;;
10596;SDS011;5346;48.766;8.674;2022-10-16T00:49:56;1.73;;;1.50;;
10596;SDS011;5346;48.766;8.674;2022-10-16T00:52:39;3.00;;;1.65;;
10596;SDS011;5346;48.766;8.674;2022-10-16T00:55:12;3.00;;;1.58;;
10596;SDS011;5346;48.766;8.674;2022-10-16T00:57:47;3.05;;;1.65;;
10596;SDS011;5346;48.766;8.674;2022-10-16T01:00:22;4.30;;;1.50;;
10596;SDS011;5346;48.766;8.674;2022-10-16T01:03:01;3.05;;;1.58;;
10596;SDS011;5346;48.766;8.674;2022-10-16T01:05:33;5.03;;;1.60;;
10596;SDS011;5346;48.766;8.674;2022-10-16T01:08:13;2.88;;;1.58;;
10596;SDS011;5346;48.766;8.674;2022-10-16T01:10:54;1.85;;;1.52;;
10596;SDS011;5346;48.766;8.674;2022-10-16T01:13:38;2.45;;;1.92;;
10596;SDS011;5346;48.766;8.674;2022-10-16T01:16:24;2.40;;;1.80;;
10596;SDS011;5346;48.766;8.674;2022-10-16T01:22:33;3.35;;;1.60;;
10596;SDS011;5346;48.766;8.674;2022-10-16T01:25:35;3.28;;;1.88;;
10596;SDS011;5346;48.766;8.674;2022-10-16T01:28:10;3.28;;;1.42;;
10596;SDS011;5346;48.766;8.674;2022-10-16T01:30:48;3.53;;;1.80;;
10596;SDS011;5346;48.766;8.674;2022-10-16T01:33:20;2.00;;;1.70;;
10596;SDS011;5346;48.766;8.674;2022-10-16T01:36:03;2.13;;;1.63;;
10596;SDS011;5346;48.766;8.674;2022-10-16T01:38:43;3.58;;;1.55;;
10596;SDS011;5346;48.766;8.674;2022-10-16T01:41:21;4.45;;;1.73;;
10596;SDS011;5346;48.766;8.674;2022-10-16T01:44:06;4.18;;;1.65;;
10596;SDS011;5346;48.766;8.674;2022-10-16T01:46:50;2.20;;;1.60;;
10596;SDS011;5346;48.766;8.674;2022-10-16T01:49:20;1.55;;;1.38;;
10596;SDS011;5346;48.766;8.674;2022-10-16T01:51:56;3.03;;;1.55;;
10596;SDS011;5346;48.766;8.674;2022-10-16T01:54:32;2.80;;;1.70;;
10596;SDS011;5346;48.766;8.674;2022-10-16T01:57:09;1.48;;;1.38;;
10596;SDS011;5346;48.766;8.674;2022-10-16T01:59:44;2.17;;;1.50;;
10596;SDS011;5346;48.766;8.674;2022-10-16T02:02:20;1.85;;;1.48;;
10596;SDS011;5346;48.766;8.674;2022-10-16T02:04:54;3.03;;;1.50;;
10596;SDS011;5346;48.766;8.674;2022-10-16T02:07:50;1.55;;;1.30;;
10596;SDS011;5346;48.766;8.674;2022-10-16T02:10:20;2.55;;;1.58;;
10596;SDS011;5346;48.766;8.674;2022-10-16T02:12:57;7.32;;;1.45;;
10596;SDS011;5346;48.766;8.674;2022-10-16T02:15:35;4.25;;;1.50;;
10596;SDS011;5346;48.766;8.674;2022-10-16T02:18:03;3.55;;;1.60;;
10596;SDS011;5346;48.766;8.674;2022-10-16T02:20:33;3.08;;;1.33;;
10596;SDS011;5346;48.766;8.674;2022-10-16T02:23:50;1.50;;;1.40;;
10596;SDS011;5346;48.766;8.674;2022-10-16T02:29:38;1.45;;;1.20;;
10596;SDS011;5346;48.766;8.674;2022-10-16T02:32:21;2.95;;;1.38;;
10596;SDS011;5346;48.766;8.674;2022-10-16T02:35:03;2.10;;;1.10;;
10596;SDS011;5346;48.766;8.674;2022-10-16T02:37:49;2.95;;;1.20;;
10596;SDS011;5346;48.766;8.674;2022-10-16T02:40:24;1.63;;;0.95;;
10596;SDS011;5346;48.766;8.674;2022-10-16T02:42:53;1.98;;;1.40;;
10596;SDS011;5346;48.766;8.674;2022-10-16T02:45:26;1.33;;;1.10;;
10596;SDS011;5346;48.766;8.674;2022-10-16T02:48:08;2.65;;;1.10;;
10596;SDS011;5346;48.766;8.674;2022-10-16T02:50:38;1.25;;;1.10;;
10596;SDS011;5346;48.766;8.674;2022-10-16T02:53:06;1.67;;;1.25;;
10596;SDS011;5346;48.766;8.674;2022-10-16T02:55:41;1.20;;;1.02;;
10596;SDS011;5346;48.766;8.674;2022-10-16T02:58:09;1.27;;;1.13;;
10596;SDS011;5346;48.766;8.674;2022-10-16T03:00:38;3.53;;;1.17;;
10596;SDS011;5346;48.766;8.674;2022-10-16T03:03:13;2.65;;;1.10;;
10596;SDS011;5346;48.766;8.674;2022-10-16T03:05:40;1.52;;;1.23;;
10596;SDS011;5346;48.766;8.674;2022-10-16T03:08:12;2.05;;;1.23;;
10596;SDS011;5346;48.766;8.674;2022-10-16T03:10:56;5.32;;;1.00;;
10596;SDS011;5346;48.766;8.674;2022-10-16T03:13:25;3.10;;;1.40;;
10596;SDS011;5346;48.766;8.674;2022-10-16T03:15:55;2.25;;;1.05;;
10596;SDS011;5346;48.766;8.674;2022-10-16T03:18:29;5.20;;;1.30;;
10596;SDS011;5346;48.766;8.674;2022-10-16T03:20:57;4.53;;;1.10;;
10596;SDS011;5346;48.766;8.674;2022-10-16T03:23:27;6.57;;;1.30;;
10596;SDS011;5346;48.766;8.674;2022-10-16T03:26:01;2.97;;;1.70;;
10596;SDS011;5346;48.766;8.674;2022-10-16T03:28:28;1.27;;;1.17;;
10596;SDS011;5346;48.766;8.674;2022-10-16T03:30:55;2.58;;;1.27;;
10596;SDS011;5346;48.766;8.674;2022-10-16T03:33:30;2.30;;;1.20;;
10596;SDS011;5346;48.766;8.674;2022-10-16T03:36:03;2.75;;;1.23;;
10596;SDS011;5346;48.766;8.674;2022-10-16T03:38:45;1.23;;;1.13;;
10596;SDS011;5346;48.766;8.674;2022-10-16T03:41:12;1.70;;;1.20;;
10596;SDS011;5346;48.766;8.674;2022-10-16T03:43:43;3.83;;;1.33;;
10596;SDS011;5346;48.766;8.674;2022-10-16T03:46:19;3.75;;;1.10;;
10596;SDS011;5346;48.766;8.674;2022-10-16T03:48:46;1.27;;;1.17;;
10596;SDS011;5346;48.766;8.674;2022-10-16T03:51:14;1.50;;;1.40;;
10596;SDS011;5346;48.766;8.674;2022-10-16T03:53:48;1.70;;;1.13;;
10596;SDS011;5346;48.766;8.674;2022-10-16T03:56:15;1.20;;;1.10;;
10596;SDS011;5346;48.766;8.674;2022-10-16T03:58:45;1.35;;;1.25;;
10596;SDS011;5346;48.766;8.674;2022-10-16T04:01:19;3.20;;;1.08;;
10596;SDS011;5346;48.766;8.674;2022-10-16T04:03:47;1.20;;;1.10;;
10596;SDS011;5346;48.766;8.674;2022-10-16T04:06:14;1.42;;;1.10;;
10596;SDS011;5346;48.766;8.674;2022-10-16T04:08:48;1.98;;;1.15;;
10596;SDS011;5346;48.766;8.674;2022-10-16T04:11:15;3.08;;;1.20;;
10596;SDS011;5346;48.766;8.674;2022-10-16T04:13:43;6.20;;;1.70;;
10596;SDS011;5346;48.766;8.674;2022-10-16T04:16:17;5.55;;;1.60;;
10596;SDS011;5346;48.766;8.674;2022-10-16T04:18:45;2.13;;;1.40;;
10596;SDS011;5346;48.766;8.674;2022-10-16T04:21:12;3.05;;;1.33;;
10596;SDS011;5346;48.766;8.674;2022-10-16T04:23:46;2.17;;;1.58;;
10596;SDS011;5346;48.766;8.674;2022-10-16T04:26:14;1.63;;;1.23;;
10596;SDS011;5346;48.766;8.674;2022-10-16T04:28:41;2.00;;;1.30;;
10596;SDS011;5346;48.766;8.674;2022-10-16T04:31:21;1.40;;;1.13;;
10596;SDS011;5346;48.766;8.674;2022-10-16T04:33:49;3.63;;;1.38;;
10596;SDS011;5346;48.766;8.674;2022-10-16T04:36:16;1.30;;;1.10;;
10596;SDS011;5346;48.766;8.674;2022-10-16T04:39:01;3.83;;;1.38;;
10596;SDS011;5346;48.766;8.674;2022-10-16T04:41:34;1.92;;;1.17;;
10596;SDS011;5346;48.766;8.674;2022-10-16T04:44:07;1.42;;;1.15;;
10596;SDS011;5346;48.766;8.674;2022-10-16T04:46:42;4.43;;;1.30;;
10596;SDS011;5346;48.766;8.674;2022-10-16T04:49:10;1.80;;;1.35;;
10596;SDS011;5346;48.766;8.674;2022-10-16T04:51:44;4.18;;;1.35;;
10596;SDS011;5346;48.766;8.674;2022-10-16T04:54:12;4.65;;;1.60;;
10596;SDS011;5346;48.766;8.674;2022-10-16T04:56:41;3.92;;;1.55;;
10596;SDS011;5346;48.766;8.674;2022-10-16T04:59:21;5.13;;;1.67;;
10596;SDS011;5346;48.766;8.674;2022-10-16T05:01:53;3.22;;;1.40;;
10596;SDS011;5346;48.766;8.674;2022-10-16T05:04:21;1.50;;;1.40;;
10596;SDS011;5346;48.766;8.674;2022-10-16T05:06:54;3.20;;;1.25;;
10596;SDS011;5346;48.766;8.674;2022-10-16T05:09:22;7.53;;;1.50;;
10596;SDS011;5346;48.766;8.674;2022-10-16T05:11:49;3.42;;;1.80;;
10596;SDS011;5346;48.766;8.674;2022-10-16T05:14:23;6.68;;;1.40;;
10596;SDS011;5346;48.766;8.674;2022-10-16T05:16:51;4.72;;;1.42;;
10596;SDS011;5346;48.766;8.674;2022-10-16T05:19:18;7.43;;;1.80;;
10596;SDS011;5346;48.766;8.674;2022-10-16T05:21:54;2.47;;;1.45;;
10596;SDS011;5346;48.766;8.674;2022-10-16T05:24:24;2.17;;;1.45;;
10596;SDS011;5346;48.766;8.674;2022-10-16T05:26:51;3.95;;;1.77;;
10596;SDS011;5346;48.766;8.674;2022-10-16T05:29:26;6.00;;;1.80;;
10596;SDS011;5346;48.766;8.674;2022-10-16T05:31:53;1.88;;;1.48;;
10596;SDS011;5346;48.766;8.674;2022-10-16T05:34:27;4.05;;;1.55;;
10596;SDS011;5346;48.766;8.674;2022-10-16T05:37:02;2.40;;;1.52;;
10596;SDS011;5346;48.766;8.674;2022-10-16T05:39:43;8.43;;;1.77;;
10596;SDS011;5346;48.766;8.674;2022-10-16T05:42:18;4.88;;;1.80;;
10596;SDS011;5346;48.766;8.674;2022-10-16T05:44:45;3.85;;;1.52;;
10596;SDS011;5346;48.766;8.674;2022-10-16T05:47:15;3.25;;;1.70;;
10596;SDS011;5346;48.766;8.674;2022-10-16T05:49:50;6.63;;;1.73;;
10596;SDS011;5346;48.766;8.674;2022-10-16T05:52:17;2.40;;;1.70;;
10596;SDS011;5346;48.766;8.674;2022-10-16T05:54:44;3.08;;;1.50;;
10596;SDS011;5346;48.766;8.674;2022-10-16T05:57:27;2.20;;;1.52;;
10596;SDS011;5346;48.766;8.674;2022-10-16T05:59:57;4.68;;;1.75;;
10596;SDS011;5346;48.766;8.674;2022-10-16T06:02:25;2.85;;;1.60;;
10596;SDS011;5346;48.766;8.674;2022-10-16T06:05:06;8.45;;;1.63;;
10596;SDS011;5346;48.766;8.674;2022-10-16T06:07:34;2.88;;;1.75;;
10596;SDS011;5346;48.766;8.674;2022-10-16T06:10:02;1.80;;;1.67;;
10596;SDS011;5346;48.766;8.674;2022-10-16T06:12:41;2.03;;;1.55;;
10596;SDS011;5346;48.766;8.674;2022-10-16T06:15:09;4.10;;;1.70;;
10596;SDS011;5346;48.766;8.674;2022-10-16T06:17:39;2.03;;;1.70;;
10596;SDS011;5346;48.766;8.674;2022-10-16T06:20:13;2.65;;;1.50;;
10596;SDS011;5346;48.766;8.674;2022-10-16T06:22:41;3.20;;;1.55;;
10596;SDS011;5346;48.766;8.674;2022-10-16T06:25:08;2.30;;;1.80;;
10596;SDS011;5346;48.766;8.674;2022-10-16T06:27:42;2.33;;;1.83;;
10596;SDS011;5346;48.766;8.674;2022-10-16T06:30:09;4.47;;;1.70;;
10596;SDS011;5346;48.766;8.674;2022-10-16T06:32:46;3.22;;;1.65;;
10596;SDS011;5346;48.766;8.674;2022-10-16T06:35:38;3.05;;;1.55;;
10596;SDS011;5346;48.766;8.674;2022-10-16T06:38:20;3.88;;;1.60;;
10596;SDS011;5346;48.766;8.674;2022-10-16T06:40:53;2.65;;;1.73;;
10596;SDS011;5346;48.766;8.674;2022-10-16T06:43:21;3.72;;;1.63;;
10596;SDS011;5346;48.766;8.674;2022-10-16T06:45:54;2.03;;;1.77;;
10596;SDS011;5346;48.766;8.674;2022-10-16T06:48:29;2.72;;;1.60;;
10596;SDS011;5346;48.766;8.674;2022-10-16T06:51:00;10.40;;;1.80;;
10596;SDS011;5346;48.766;8.674;2022-10-16T06:53:40;2.45;;;1.48;;
10596;SDS011;5346;48.766;8.674;2022-10-16T06:56:29;4.00;;;1.50;;
10596;SDS011;5346;48.766;8.674;2022-10-16T06:59:04;1.90;;;1.50;;
10596;SDS011;5346;48.766;8.674;2022-10-16T07:01:32;2.08;;;1.33;;
10596;SDS011;5346;48.766;8.674;2022-10-16T07:04:00;3.13;;;1.70;;
10596;SDS011;5346;48.766;8.674;2022-10-16T07:06:35;1.95;;;1.60;;
10596;SDS011;5346;48.766;8.674;2022-10-16T07:09:04;6.53;;;1.60;;
10596;SDS011;5346;48.766;8.674;2022-10-16T07:11:32;1.50;;;1.40;;
10596;SDS011;5346;48.766;8.674;2022-10-16T07:14:17;3.83;;;1.65;;
10596;SDS011;5346;48.766;8.674;2022-10-16T07:16:45;2.67;;;1.30;;
10596;SDS011;5346;48.766;8.674;2022-10-16T07:19:20;3.03;;;1.30;;
10596;SDS011;5346;48.766;8.674;2022-10-16T07:21:55;3.00;;;1.60;;
10596;SDS011;5346;48.766;8.674;2022-10-16T07:24:30;2.35;;;1.52;;
10596;SDS011;5346;48.766;8.674;2022-10-16T07:26:57;1.83;;;1.42;;
10596;SDS011;5346;48.766;8.674;2022-10-16T07:29:27;2.13;;;1.77;;
10596;SDS011;5346;48.766;8.674;2022-10-16T07:32:01;1.40;;;1.30;;
10596;SDS011;5346;48.766;8.674;2022-10-16T07:34:29;5.35;;;1.30;;
10596;SDS011;5346;48.766;8.674;2022-10-16T07:37:03;1.35;;;1.20;;
10596;SDS011;5346;48.766;8.674;2022-10-16T07:39:37;1.90;;;1.30;;
10596;SDS011;5346;48.766;8.674;2022-10-16T07:42:05;2.15;;;1.30;;
10596;SDS011;5346;48.766;8.674;2022-10-16T07:44:33;1.35;;;1.25;;
10596;SDS011;5346;48.766;8.674;2022-10-16T07:47:08;2.42;;;1.42;;
10596;SDS011;5346;48.766;8.674;2022-10-16T07:49:36;1.35;;;1.25;;
10596;SDS011;5346;48.766;8.674;2022-10-16T07:52:05;6.63;;;1.40;;
10596;SDS011;5346;48.766;8.674;2022-10-16T07:54:42;1.73;;;1.50;;
10596;SDS011;5346;48.766;8.674;2022-10-16T07:57:15;3.28;;;1.50;;
10596;SDS011;5346;48.766;8.674;2022-10-16T07:59:53;1.65;;;1.20;;
10596;SDS011;5346;48.766;8.674;2022-10-16T08:02:21;4.55;;;1.40;;
10596;SDS011;5346;48.766;8.674;2022-10-16T08:04:49;4.97;;;1.05;;
10596;SDS011;5346;48.766;8.674;2022-10-16T08:07:23;3.25;;;1.35;;
10596;SDS011;5346;48.766;8.674;2022-10-16T08:09:54;2.25;;;1.38;;
10596;SDS011;5346;48.766;8.674;2022-10-16T08:12:33;1.55;;;1.10;;
10596;SDS011;5346;48.766;8.674;2022-10-16T08:18:37;1.50;;;1.40;;
10596;SDS011;5346;48.766;8.674;2022-10-16T08:21:16;1.20;;;1.10;;
10596;SDS011;5346;48.766;8.674;2022-10-16T08:23:47;3.17;;;1.33;;
10596;SDS011;5346;48.766;8.674;2022-10-16T08:26:24;2.72;;;1.30;;
10596;SDS011;5346;48.766;8.674;2022-10-16T08:28:53;5.03;;;1.30;;
10596;SDS011;5346;48.766;8.674;2022-10-16T08:31:21;4.38;;;1.27;;
10596;SDS011;5346;48.766;8.674;2022-10-16T08:33:56;3.53;;;1.50;;
10596;SDS011;5346;48.766;8.674;2022-10-16T08:36:23;2.90;;;1.20;;
10596;SDS011;5346;48.766;8.674;2022-10-16T08:39:05;2.67;;;1.60;;
10596;SDS011;5346;48.766;8.674;2022-10-16T08:47:42;2.05;;;1.42;;
10596;SDS011;5346;48.766;8.674;2022-10-16T08:50:26;3.45;;;1.52;;
10596;SDS011;5346;48.766;8.674;2022-10-16T08:52:56;3.28;;;1.55;;
10596;SDS011;5346;48.766;8.674;2022-10-16T08:55:41;7.10;;;1.50;;
10596;SDS011;5346;48.766;8.674;2022-10-16T08:58:13;2.92;;;1.30;;
10596;SDS011;5346;48.766;8.674;2022-10-16T09:00:51;1.50;;;1.35;;
10596;SDS011;5346;48.766;8.674;2022-10-16T09:09:20;2.50;;;1.50;;
10596;SDS011;5346;48.766;8.674;2022-10-16T09:25:31;2.38;;;1.23;;
10596;SDS011;5346;48.766;8.674;2022-10-16T09:28:02;3.90;;;1.55;;
10596;SDS011;5346;48.766;8.674;2022-10-16T09:30:37;1.40;;;1.20;;
10596;SDS011;5346;48.766;8.674;2022-10-16T09:33:07;2.45;;;1.30;;
10596;SDS011;5346;48.766;8.674;2022-10-16T09:38:20;1.80;;;1.30;;
10596;SDS011;5346;48.766;8.674;2022-10-16T09:41:13;2.28;;;1.30;;
10596;SDS011;5346;48.766;8.674;2022-10-16T09:43:57;1.75;;;1.25;;
10596;SDS011;5346;48.766;8.674;2022-10-16T09:49:19;2.33;;;1.30;;
10596;SDS011;5346;48.766;8.674;2022-10-16T09:51:47;3.15;;;1.10;;
10596;SDS011;5346;48.766;8.674;2022-10-16T09:54:22;1.40;;;1.02;;
10596;SDS011;5346;48.766;8.674;2022-10-16T09:57:04;1.38;;;1.20;;
10596;SDS011;5346;48.766;8.674;2022-10-16T09:59:46;3.38;;;1.30;;
10596;SDS011;5346;48.766;8.674;2022-10-16T10:02:16;4.80;;;1.10;;
10596;SDS011;5346;48.766;8.674;2022-10-16T10:04:56;3.20;;;1.20;;
10596;SDS011;5346;48.766;8.674;2022-10-16T10:07:27;2.25;;;1.30;;
10596;SDS011;5346;48.766;8.674;2022-10-16T10:12:56;2.33;;;1.33;;
10596;SDS011;5346;48.766;8.674;2022-10-16T10:15:33;2.53;;;1.35;;
10596;SDS011;5346;48.766;8.674;2022-10-16T10:18:02;2.45;;;1.40;;
10596;SDS011;5346;48.766;8.674;2022-10-16T10:20:59;1.55;;;1.15;;
10596;SDS011;5346;48.766;8.674;2022-10-16T10:23:54;2.30;;;1.20;;
10596;SDS011;5346;48.766;8.674;2022-10-16T10:26:29;1.65;;;1.23;;
10596;SDS011;5346;48.766;8.674;2022-10-16T10:43:26;1.73;;;1.00;;
10596;SDS011;5346;48.766;8.674;2022-10-16T10:46:08;3.63;;;1.45;;
10596;SDS011;5346;48.766;8.674;2022-10-16T10:49:17;1.30;;;1.20;;
10596;SDS011;5346;48.766;8.674;2022-10-16T10:51:54;3.80;;;1.50;;
10596;SDS011;5346;48.766;8.674;2022-10-16T11:05:45;1.60;;;1.05;;
10596;SDS011;5346;48.766;8.674;2022-10-16T11:08:25;2.95;;;1.10;;
10596;SDS011;5346;48.766;8.674;2022-10-16T11:11:06;3.05;;;1.02;;
10596;SDS011;5346;48.766;8.674;2022-10-16T11:31:03;2.40;;;1.10;;
10596;SDS011;5346;48.766;8.674;2022-10-16T11:39:36;2.05;;;1.20;;
10596;SDS011;5346;48.766;8.674;2022-10-16T11:50:28;1.25;;;1.15;;
10596;SDS011;5346;48.766;8.674;2022-10-16T11:56:19;1.13;;;1.02;;
10596;SDS011;5346;48.766;8.674;2022-10-16T12:01:31;2.63;;;1.00;;
10596;SDS011;5346;48.766;8.674;2022-10-16T12:09:42;1.45;;;1.10;;
10596;SDS011;5346;48.766;8.674;2022-10-16T12:12:23;4.70;;;1.40;;
10596;SDS011;5346;48.766;8.674;2022-10-16T12:18:20;5.93;;;1.48;;
10596;SDS011;5346;48.766;8.674;2022-10-16T12:20:56;2.42;;;1.50;;
10596;SDS011;5346;48.766;8.674;2022-10-16T12:23:27;2.10;;;1.40;;
10596;SDS011;5346;48.766;8.674;2022-10-16T12:25:58;1.75;;;1.30;;
10596;SDS011;5346;48.766;8.674;2022-10-16T12:28:37;4.68;;;1.27;;
10596;SDS011;5346;48.766;8.674;2022-10-16T12:31:08;6.05;;;1.95;;
10596;SDS011;5346;48.766;8.674;2022-10-16T12:33:58;4.35;;;1.77;;
10596;SDS011;5346;48.766;8.674;2022-10-16T12:36:35;3.78;;;1.45;;
10596;SDS011;5346;48.766;8.674;2022-10-16T12:39:20;4.70;;;1.63;;
10596;SDS011;5346;48.766;8.674;2022-10-16T12:42:18;6.22;;;1.60;;
10596;SDS011;5346;48.766;8.674;2022-10-16T12:44:56;2.35;;;1.80;;
10596;SDS011;5346;48.766;8.674;2022-10-16T12:50:22;3.50;;;1.52;;
10596;SDS011;5346;48.766;8.674;2022-10-16T12:53:00;7.80;;;7.03;;
10596;SDS011;5346;48.766;8.674;2022-10-16T12:55:42;3.75;;;1.48;;
10596;SDS011;5346;48.766;8.674;2022-10-16T12:58:27;2.33;;;1.92;;
10596;SDS011;5346;48.766;8.674;2022-10-16T13:10:11;6.47;;;1.70;;
10596;SDS011;5346;48.766;8.674;2022-10-16T13:24:19;2.78;;;1.80;;
10596;SDS011;5346;48.766;8.674;2022-10-16T13:32:49;5.85;;;1.80;;
10596;SDS011;5346;48.766;8.674;2022-10-16T13:35:33;2.90;;;1.70;;
10596;SDS011;5346;48.766;8.674;2022-10-16T13:40:52;3.08;;;2.00;;
10596;SDS011;5346;48.766;8.674;2022-10-16T13:43:28;3.20;;;2.03;;
10596;SDS011;5346;48.766;8.674;2022-10-16T13:48:43;2.25;;;1.67;;
10596;SDS011;5346;48.766;8.674;2022-10-16T13:51:32;5.15;;;1.98;;
10596;SDS011;5346;48.766;8.674;2022-10-16T13:54:02;2.08;;;1.88;;
10596;SDS011;5346;48.766;8.674;2022-10-16T13:56:41;5.10;;;1.67;;
10596;SDS011;5346;48.766;8.674;2022-10-16T14:02:36;2.00;;;1.80;;
10596;SDS011;5346;48.766;8.674;2022-10-16T14:05:08;5.57;;;2.35;;
10596;SDS011;5346;48.766;8.674;2022-10-16T14:07:49;6.07;;;1.92;;
10596;SDS011;5346;48.766;8.674;2022-10-16T14:10:28;8.82;;;2.15;;
10596;SDS011;5346;48.766;8.674;2022-10-16T14:13:06;4.13;;;1.60;;
10596;SDS011;5346;48.766;8.674;2022-10-16T14:15:46;4.38;;;1.95;;
10596;SDS011;5346;48.766;8.674;2022-10-16T14:18:26;4.95;;;1.80;;
10596;SDS011;5346;48.766;8.674;2022-10-16T14:21:04;3.65;;;1.88;;
10596;SDS011;5346;48.766;8.674;2022-10-16T14:23:41;3.65;;;1.77;;
10596;SDS011;5346;48.766;8.674;2022-10-16T14:29:12;3.97;;;1.40;;
10596;SDS011;5346;48.766;8.674;2022-10-16T14:31:53;4.32;;;1.60;;
10596;SDS011;5346;48.766;8.674;2022-10-16T14:34:32;6.47;;;1.75;;
10596;SDS011;5346;48.766;8.674;2022-10-16T14:40:31;6.72;;;1.70;;
10596;SDS011;5346;48.766;8.674;2022-10-16T14:43:04;7.18;;;1.80;;
10596;SDS011;5346;48.766;8.674;2022-10-16T14:45:39;5.32;;;1.75;;
10596;SDS011;5346;48.766;8.674;2022-10-16T14:48:14;5.22;;;1.90;;
10596;SDS011;5346;48.766;8.674;2022-10-16T14:50:52;3.95;;;1.88;;
10596;SDS011;5346;48.766;8.674;2022-10-16T14:53:20;7.10;;;1.90;;
10596;SDS011;5346;48.766;8.674;2022-10-16T14:55:50;3.55;;;1.80;;
10596;SDS011;5346;48.766;8.674;2022-10-16T14:58:24;1.80;;;1.70;;
10596;SDS011;5346;48.766;8.674;2022-10-16T15:00:52;10.50;;;2.10;;
10596;SDS011;5346;48.766;8.674;2022-10-16T15:03:22;3.08;;;1.90;;
10596;SDS011;5346;48.766;8.674;2022-10-16T15:05:58;3.17;;;1.70;;
10596;SDS011;5346;48.766;8.674;2022-10-16T15:08:25;2.03;;;1.58;;
10596;SDS011;5346;48.766;8.674;2022-10-16T15:10:55;3.88;;;1.98;;
10596;SDS011;5346;48.766;8.674;2022-10-16T15:13:32;5.55;;;1.83;;
10596;SDS011;5346;48.766;8.674;2022-10-16T15:15:59;3.00;;;1.85;;
10596;SDS011;5346;48.766;8.674;2022-10-16T15:18:27;2.35;;;2.15;;
10596;SDS011;5346;48.766;8.674;2022-10-16T15:21:02;2.97;;;2.00;;
10596;SDS011;5346;48.766;8.674;2022-10-16T15:23:29;5.00;;;1.70;;
10596;SDS011;5346;48.766;8.674;2022-10-16T15:25:57;3.22;;;1.88;;
10596;SDS011;5346;48.766;8.674;2022-10-16T15:28:32;2.47;;;1.70;;
10596;SDS011;5346;48.766;8.674;2022-10-16T15:30:59;3.60;;;1.80;;
10596;SDS011;5346;48.766;8.674;2022-10-16T15:33:31;5.43;;;1.90;;
10596;SDS011;5346;48.766;8.674;2022-10-16T15:36:07;5.88;;;1.95;;
10596;SDS011;5346;48.766;8.674;2022-10-16T15:38:35;5.72;;;1.80;;
10596;SDS011;5346;48.766;8.674;2022-10-16T15:41:17;3.47;;;1.95;;
10596;SDS011;5346;48.766;8.674;2022-10-16T15:43:49;4.40;;;1.90;;
10596;SDS011;5346;48.766;8.674;2022-10-16T15:46:20;2.10;;;1.83;;
10596;SDS011;5346;48.766;8.674;2022-10-16T15:48:56;6.72;;;2.10;;
10596;SDS011;5346;48.766;8.674;2022-10-16T15:51:25;3.13;;;1.88;;
10596;SDS011;5346;48.766;8.674;2022-10-16T15:54:06;3.70;;;1.73;;
10596;SDS011;5346;48.766;8.674;2022-10-16T15:56:34;3.33;;;1.95;;
10596;SDS011;5346;48.766;8.674;2022-10-16T15:59:06;2.15;;;1.95;;
10596;SDS011;5346;48.766;8.674;2022-10-16T16:01:40;4.90;;;2.25;;
10596;SDS011;5346;48.766;8.674;2022-10-16T16:04:10;3.92;;;2.38;;
10596;SDS011;5346;48.766;8.674;2022-10-16T16:06:58;2.35;;;2.03;;
10596;SDS011;5346;48.766;8.674;2022-10-16T16:09:34;2.50;;;2.30;;
10596;SDS011;5346;48.766;8.674;2022-10-16T16:12:01;4.70;;;2.20;;
10596;SDS011;5346;48.766;8.674;2022-10-16T16:14:31;4.63;;;2.70;;
10596;SDS011;5346;48.766;8.674;2022-10-16T16:17:12;5.85;;;2.70;;
10596;SDS011;5346;48.766;8.674;2022-10-16T16:19:42;5.97;;;2.88;;
10596;SDS011;5346;48.766;8.674;2022-10-16T16:22:15;6.30;;;2.75;;
10596;SDS011;5346;48.766;8.674;2022-10-16T16:24:43;5.05;;;3.13;;
10596;SDS011;5346;48.766;8.674;2022-10-16T16:27:11;7.93;;;2.90;;
10596;SDS011;5346;48.766;8.674;2022-10-16T16:29:46;6.53;;;3.00;;
10596;SDS011;5346;48.766;8.674;2022-10-16T16:32:15;6.43;;;3.10;;
10596;SDS011;5346;48.766;8.674;2022-10-16T16:34:43;8.43;;;3.47;;
10596;SDS011;5346;48.766;8.674;2022-10-16T16:37:17;5.47;;;3.10;;
10596;SDS011;5346;48.766;8.674;2022-10-16T16:39:51;15.43;;;3.08;;
10596;SDS011;5346;48.766;8.674;2022-10-16T16:42:28;5.55;;;3.35;;
10596;SDS011;5346;48.766;8.674;2022-10-16T16:44:55;4.30;;;2.85;;
10596;SDS011;5346;48.766;8.674;2022-10-16T16:47:23;5.78;;;3.05;;
10596;SDS011;5346;48.766;8.674;2022-10-16T16:49:57;5.32;;;2.97;;
10596;SDS011;5346;48.766;8.674;2022-10-16T16:52:30;6.35;;;3.78;;
10596;SDS011;5346;48.766;8.674;2022-10-16T16:55:05;4.80;;;3.53;;
10596;SDS011;5346;48.766;8.674;2022-10-16T16:57:32;7.97;;;3.67;;
10596;SDS011;5346;48.766;8.674;2022-10-16T17:00:00;3.92;;;3.40;;
10596;SDS011;5346;48.766;8.674;2022-10-16T17:02:33;5.30;;;3.47;;
10596;SDS011;5346;48.766;8.674;2022-10-16T17:05:09;5.47;;;3.30;;
10596;SDS011;5346;48.766;8.674;2022-10-16T17:07:42;7.00;;;3.38;;
10596;SDS011;5346;48.766;8.674;2022-10-16T17:10:10;6.63;;;2.88;;
10596;SDS011;5346;48.766;8.674;2022-10-16T17:12:37;3.88;;;3.08;;
10596;SDS011;5346;48.766;8.674;2022-10-16T17:15:12;4.18;;;3.00;;
10596;SDS011;5346;48.766;8.674;2022-10-16T17:17:46;4.50;;;3.08;;
10596;SDS011;5346;48.766;8.674;2022-10-16T17:20:21;8.23;;;3.15;;
10596;SDS011;5346;48.766;8.674;2022-10-16T17:22:49;4.22;;;2.58;;
10596;SDS011;5346;48.766;8.674;2022-10-16T17:25:17;7.47;;;2.80;;
10596;SDS011;5346;48.766;8.674;2022-10-16T17:27:59;6.05;;;2.90;;
10596;SDS011;5346;48.766;8.674;2022-10-16T17:30:27;3.75;;;2.45;;
10596;SDS011;5346;48.766;8.674;2022-10-16T17:33:09;5.05;;;3.03;;
10596;SDS011;5346;48.766;8.674;2022-10-16T17:35:44;4.40;;;2.53;;
10596;SDS011;5346;48.766;8.674;2022-10-16T17:38:28;7.18;;;2.45;;
10596;SDS011;5346;48.766;8.674;2022-10-16T17:41:21;5.68;;;2.60;;
10596;SDS011;5346;48.766;8.674;2022-10-16T17:43:56;5.15;;;2.42;;
10596;SDS011;5346;48.766;8.674;2022-10-16T17:46:24;4.07;;;3.10;;
10596;SDS011;5346;48.766;8.674;2022-10-16T17:48:52;5.22;;;2.40;;
10596;SDS011;5346;48.766;8.674;2022-10-16T17:51:30;5.82;;;3.15;;
10596;SDS011;5346;48.766;8.674;2022-10-16T17:53:59;3.25;;;2.42;;
10596;SDS011;5346;48.766;8.674;2022-10-16T17:56:28;5.47;;;2.80;;
10596;SDS011;5346;48.766;8.674;2022-10-16T17:59:02;3.72;;;2.55;;
10596;SDS011;5346;48.766;8.674;2022-10-16T18:01:31;9.50;;;2.92;;
10596;SDS011;5346;48.766;8.674;2022-10-16T18:04:01;4.35;;;2.75;;
10596;SDS011;5346;48.766;8.674;2022-10-16T18:06:40;6.07;;;2.55;;
10596;SDS011;5346;48.766;8.674;2022-10-16T18:09:11;2.88;;;2.50;;
10596;SDS011;5346;48.766;8.674;2022-10-16T18:11:53;4.53;;;2.88;;
10596;SDS011;5346;48.766;8.674;2022-10-16T18:14:26;4.60;;;2.53;;
10596;SDS011;5346;48.766;8.674;2022-10-16T18:17:01;3.25;;;2.50;;
10596;SDS011;5346;48.766;8.674;2022-10-16T18:19:32;3.22;;;2.22;;
10596;SDS011;5346;48.766;8.674;2022-10-16T18:22:00;3.25;;;2.40;;
10596;SDS011;5346;48.766;8.674;2022-10-16T18:24:34;2.85;;;2.53;;
10596;SDS011;5346;48.766;8.674;2022-10-16T18:27:02;5.20;;;2.25;;
10596;SDS011;5346;48.766;8.674;2022-10-16T18:29:30;5.90;;;2.20;;